createdAt,value
2023-03-29T00:01:52.651Z,100776.40
2023-03-29T00:06:55.946Z,100774.00
2023-03-29T00:12:01.592Z,100771.40
2023-03-29T00:17:04.746Z,100769.80
2023-03-29T00:22:08.228Z,100782.00
2023-03-29T00:27:11.339Z,100768.20
2023-03-29T00:32:15.770Z,100772.20
2023-03-29T00:37:19.694Z,100774.40
2023-03-29T00:42:24.538Z,100783.60
2023-03-29T00:47:30.525Z,100772.80
2023-03-29T00:52:35.983Z,100768.40
2023-03-29T00:57:43.584Z,100772.20
2023-03-29T01:02:54.622Z,100779.00
2023-03-29T01:08:09.256Z,100772.00
2023-03-29T01:13:22.562Z,100768.60
2023-03-29T01:18:25.715Z,100768.80
2023-03-29T01:24:07.384Z,100768.20
2023-03-29T01:29:29.033Z,100760.40
2023-03-29T01:34:43.126Z,100767.00
2023-03-29T01:39:46.860Z,100767.00
2023-03-29T01:45:11.780Z,100756.20
2023-03-29T01:50:41.127Z,100764.20
2023-03-29T01:55:51.993Z,100770.20
2023-03-29T02:00:55.784Z,100764.00
2023-03-29T02:06:01.645Z,100770.60
2023-03-29T02:11:05.714Z,100769.40
2023-03-29T02:16:15.066Z,100766.80
2023-03-29T02:21:32.827Z,100765.00
2023-03-29T02:26:36.432Z,100768.60
2023-03-29T02:32:12.601Z,100765.60
2023-03-29T02:37:20.114Z,100774.60
2023-03-29T02:42:25.687Z,100769.00
2023-03-29T02:47:41.562Z,100774.00
2023-03-29T02:52:55.161Z,100770.40
2023-03-29T02:57:58.656Z,100766.80
2023-03-29T03:03:03.515Z,100770.00
2023-03-29T03:08:07.627Z,100774.00
2023-03-29T03:13:10.631Z,100774.20
2023-03-29T03:18:14.361Z,100766.40
2023-03-29T03:23:18.067Z,100765.40
2023-03-29T03:28:24.410Z,100771.40
2023-03-29T03:33:28.386Z,100768.80
2023-03-29T03:38:33.556Z,100777.40
2023-03-29T03:43:36.852Z,100771.20
2023-03-29T03:48:39.945Z,100782.60
2023-03-29T03:53:43.154Z,100783.60
2023-03-29T03:58:46.578Z,100781.00
2023-03-29T04:03:49.970Z,100780.40
2023-03-29T04:08:53.819Z,100780.40
2023-03-29T04:13:58.033Z,100778.60
2023-03-29T04:19:01.588Z,100779.20
2023-03-29T04:24:05.951Z,100781.00
2023-03-29T04:29:09.345Z,100777.40
2023-03-29T04:34:12.717Z,100782.20
2023-03-29T04:39:18.294Z,100783.40
2023-03-29T04:44:21.607Z,100785.20
2023-03-29T04:49:26.073Z,100787.00
2023-03-29T04:54:29.454Z,100785.80
2023-03-29T04:59:32.659Z,100786.00
2023-03-29T05:04:36.854Z,100791.60
2023-03-29T05:09:41.948Z,100786.40
2023-03-29T05:14:45.057Z,100794.20
2023-03-29T05:19:48.599Z,100788.00
2023-03-29T05:24:53.121Z,100786.60
2023-03-29T05:29:56.339Z,100781.40
2023-03-29T05:34:59.422Z,100784.40
2023-03-29T05:40:08.687Z,100794.00
2023-03-29T05:45:12.326Z,100784.80
2023-03-29T05:50:15.595Z,100784.40
2023-03-29T05:55:18.706Z,100788.20
2023-03-29T06:00:24.428Z,100787.00
2023-03-29T06:05:27.785Z,100785.40
2023-03-29T06:10:31.296Z,100789.20
2023-03-29T06:15:35.741Z,100792.00
2023-03-29T06:20:38.948Z,100792.80
2023-03-29T06:25:44.928Z,100792.60
2023-03-29T06:30:49.456Z,100794.80
2023-03-29T06:35:53.029Z,100792.00
2023-03-29T06:41:06.088Z,100797.00
2023-03-29T06:46:12.333Z,100801.60
2023-03-29T06:51:15.710Z,100792.80
2023-03-29T06:56:18.837Z,100794.60
2023-03-29T07:01:22.065Z,100803.40
2023-03-29T07:06:26.666Z,100799.80
2023-03-29T07:11:31.824Z,100800.60
2023-03-29T07:16:37.819Z,100790.80
2023-03-29T07:21:41.824Z,100793.80
2023-03-29T07:27:00.292Z,100795.00
2023-03-29T07:32:07.520Z,100789.40
2023-03-29T07:37:10.796Z,100783.80
2023-03-29T07:42:14.010Z,100787.80
2023-03-29T07:47:17.211Z,100786.60
2023-03-29T07:52:20.236Z,100784.20
2023-03-29T07:57:25.336Z,100775.40
2023-03-29T08:02:29.360Z,100778.60
2023-03-29T08:07:33.221Z,100768.60
2023-03-29T08:12:37.829Z,100773.80
2023-03-29T08:17:42.171Z,100768.00
2023-03-29T08:22:45.517Z,100767.80
2023-03-29T08:27:48.663Z,100768.00
2023-03-29T08:32:55.160Z,100770.60
2023-03-29T08:37:58.765Z,100768.40
2023-03-29T08:43:26.823Z,100769.20
2023-03-29T08:48:42.538Z,100769.20
2023-03-29T08:54:17.577Z,100761.20
2023-03-29T08:59:30.753Z,100756.20
2023-03-29T09:04:36.772Z,100751.40
2023-03-29T09:09:39.901Z,100750.60
2023-03-29T09:15:00.362Z,100753.20
2023-03-29T09:20:18.882Z,100746.00
2023-03-29T09:25:27.583Z,100733.20
2023-03-29T09:30:43.347Z,100739.20
2023-03-29T09:36:12.624Z,100740.60
2023-03-29T09:41:41.493Z,100742.80
2023-03-29T09:47:10.772Z,100742.40
2023-03-29T09:52:17.431Z,100738.60
2023-03-29T09:57:21.071Z,100741.00
2023-03-29T10:02:24.225Z,100734.40
2023-03-29T10:07:44.819Z,100727.20
2023-03-29T10:12:59.373Z,100723.20
2023-03-29T10:18:11.015Z,100726.40
2023-03-29T10:23:18.949Z,100718.40
2023-03-29T10:28:23.029Z,100712.80
2023-03-29T10:33:32.774Z,100711.40
2023-03-29T10:38:38.269Z,100705.60
2023-03-29T10:43:49.639Z,100705.00
2023-03-29T10:48:57.889Z,100696.20
2023-03-29T10:54:03.065Z,100693.20
2023-03-29T10:59:25.096Z,100685.60
2023-03-29T11:04:47.956Z,100674.60
2023-03-29T11:10:34.904Z,100684.40
2023-03-29T11:16:20.024Z,100676.40
2023-03-29T11:21:35.161Z,100662.80
2023-03-29T11:27:03.116Z,100665.60
2023-03-29T11:32:13.389Z,100663.60
2023-03-29T11:37:35.198Z,100658.60
2023-03-29T11:42:46.096Z,100644.40
2023-03-29T11:47:53.597Z,100651.60
2023-03-29T11:53:08.475Z,100641.60
2023-03-29T11:58:40.450Z,100635.40
2023-03-29T12:03:59.178Z,100631.20
2023-03-29T12:09:13.197Z,100622.20
2023-03-29T12:14:42.703Z,100622.40
2023-03-29T12:20:13.554Z,100615.40
2023-03-29T12:25:25.237Z,100614.00
2023-03-29T12:30:52.024Z,100611.00
2023-03-29T12:36:32.210Z,100608.80
2023-03-29T12:41:38.567Z,100610.60
2023-03-29T12:46:41.911Z,100590.80
2023-03-29T12:51:45.635Z,100598.00
2023-03-29T12:56:52.286Z,100590.20
2023-03-29T13:02:20.426Z,100590.80
2023-03-29T13:07:23.638Z,100583.60
2023-03-29T13:12:42.181Z,100580.20
2023-03-29T13:18:20.037Z,100580.40
2023-03-29T13:23:52.389Z,100574.40
2023-03-29T13:29:51.828Z,100567.20
2023-03-29T13:35:07.275Z,100565.00
2023-03-29T13:40:44.854Z,100561.80
2023-03-29T13:45:57.253Z,100555.60
2023-03-29T13:51:08.563Z,100544.20
2023-03-29T13:56:22.192Z,100547.20
2023-03-29T14:01:40.119Z,100543.60
2023-03-29T14:06:53.005Z,100538.20
2023-03-29T14:12:00.630Z,100539.60
2023-03-29T14:17:06.175Z,100539.60
2023-03-29T14:22:17.042Z,100541.80
2023-03-29T14:27:22.303Z,100540.80
2023-03-29T14:32:31.617Z,100535.60
2023-03-29T14:37:34.880Z,100526.80
2023-03-29T14:42:38.604Z,100528.40
2023-03-29T14:47:44.807Z,100521.00
2023-03-29T14:52:52.397Z,100515.20
2023-03-29T14:57:56.484Z,100509.40
2023-03-29T15:03:03.092Z,100509.60
2023-03-29T15:08:13.475Z,100507.80
2023-03-29T15:13:24.681Z,100507.20
2023-03-29T15:18:35.199Z,100507.60
2023-03-29T15:23:55.134Z,100498.00
2023-03-29T15:29:08.213Z,100496.00
2023-03-29T15:34:14.681Z,100486.60
2023-03-29T15:39:20.272Z,100486.20
2023-03-29T15:44:29.495Z,100475.60
2023-03-29T15:49:32.523Z,100475.00
2023-03-29T15:54:37.448Z,100471.60
2023-03-29T15:59:41.970Z,100471.80
2023-03-29T16:04:45.113Z,100466.20
2023-03-29T16:09:48.313Z,100464.40
2023-03-29T16:14:51.612Z,100462.80
2023-03-29T16:19:54.728Z,100460.40
2023-03-29T16:24:57.955Z,100456.60
2023-03-29T16:30:01.459Z,100450.60
2023-03-29T16:35:27.169Z,100448.80
2023-03-29T16:40:30.596Z,100442.40
2023-03-29T16:45:33.910Z,100438.40
2023-03-29T16:50:37.580Z,100434.60
2023-03-29T16:55:41.148Z,100431.80
2023-03-29T17:00:47.980Z,100428.20
2023-03-29T17:05:54.014Z,100429.20
2023-03-29T17:10:57.642Z,100426.40
2023-03-29T17:16:01.540Z,100425.00
2023-03-29T17:21:07.289Z,100422.40
2023-03-29T17:26:12.174Z,100425.00
2023-03-29T17:31:16.378Z,100427.00
2023-03-29T17:36:24.243Z,100426.00
2023-03-29T17:41:30.402Z,100427.00
2023-03-29T17:46:34.495Z,100427.00
2023-03-29T17:51:37.732Z,100420.80
2023-03-29T17:56:41.174Z,100426.00
2023-03-29T18:01:44.310Z,100421.20
2023-03-29T18:06:49.413Z,100418.60
2023-03-29T18:11:52.637Z,100421.00
2023-03-29T18:16:57.241Z,100427.40
2023-03-29T18:22:01.085Z,100430.20
2023-03-29T18:27:04.500Z,100420.60
2023-03-29T18:32:08.061Z,100425.00
2023-03-29T18:37:15.162Z,100422.80
2023-03-29T18:42:20.598Z,100417.80
2023-03-29T18:47:23.629Z,100415.00
2023-03-29T18:52:27.926Z,100417.80
2023-03-29T18:57:31.058Z,100418.40
2023-03-29T19:02:34.319Z,100420.00
2023-03-29T19:07:38.069Z,100420.40
2023-03-29T19:12:41.598Z,100406.80
2023-03-29T19:17:45.246Z,100405.20
2023-03-29T19:22:48.433Z,100398.80
2023-03-29T19:27:51.515Z,100395.00
2023-03-29T19:32:54.670Z,100386.60
2023-03-29T19:37:58.145Z,100385.40
2023-03-29T19:43:01.349Z,100389.60
2023-03-29T19:48:04.722Z,100383.40
2023-03-29T19:53:09.050Z,100382.40
2023-03-29T19:58:12.514Z,100378.00
2023-03-29T20:03:16.017Z,100379.60
2023-03-29T20:08:19.248Z,100377.20
2023-03-29T20:13:35.344Z,100367.40
2023-03-29T20:18:40.902Z,100363.40
2023-03-29T20:23:44.452Z,100361.60
2023-03-29T20:28:47.767Z,100355.20
2023-03-29T20:33:50.831Z,100354.80
2023-03-29T20:38:56.501Z,100348.60
2023-03-29T20:44:00.484Z,100346.40
2023-03-29T20:49:09.039Z,100347.20
2023-03-29T20:54:14.353Z,100345.60
2023-03-29T20:59:18.038Z,100340.60
2023-03-29T21:04:21.143Z,100324.60
2023-03-29T21:09:25.709Z,100310.20
2023-03-29T21:14:30.438Z,100306.20
2023-03-29T21:19:33.426Z,100299.60
2023-03-29T21:24:36.779Z,100287.40
2023-03-29T21:29:39.960Z,100275.80
2023-03-29T21:34:43.060Z,100284.40
2023-03-29T21:39:46.159Z,100269.60
2023-03-29T21:44:49.165Z,100258.80
2023-03-29T21:49:52.268Z,100260.80
2023-03-29T21:54:55.272Z,100266.00
2023-03-29T21:59:58.426Z,100258.00
2023-03-29T22:05:01.389Z,100268.00
2023-03-29T22:10:12.020Z,100263.80
2023-03-29T22:15:16.002Z,100262.40
2023-03-29T22:20:20.248Z,100247.60
2023-03-29T22:25:24.512Z,100244.80
2023-03-29T22:30:27.682Z,100248.60
2023-03-29T22:35:30.737Z,100250.00
2023-03-29T22:40:33.877Z,100238.00
2023-03-29T22:45:37.014Z,100234.00
2023-03-29T22:50:43.173Z,100227.20
2023-03-29T22:55:46.494Z,100225.60
2023-03-29T23:00:51.807Z,100218.80
2023-03-29T23:05:58.336Z,100215.60
2023-03-29T23:11:03.169Z,100207.80
2023-03-29T23:16:07.577Z,100201.20
2023-03-29T23:21:10.927Z,100206.80
2023-03-29T23:26:14.360Z,100204.40
2023-03-29T23:31:20.533Z,100197.40
2023-03-29T23:36:25.780Z,100192.00
2023-03-29T23:41:30.928Z,100187.80
2023-03-29T23:46:34.582Z,100181.20
2023-03-29T23:51:39.329Z,100180.20
2023-03-29T23:56:42.438Z,100169.60
